createdAt,value
2019-03-29T00:00:04.476Z,4.7
2019-03-29T00:15:04.590Z,4.5
2019-03-29T00:30:05.006Z,4.5
2019-03-29T00:45:04.998Z,4.4
2019-03-29T01:00:05.080Z,4.4
2019-03-29T01:15:05.079Z,4.2
2019-03-29T01:30:05.122Z,4.2
2019-03-29T01:45:05.244Z,4.1
2019-03-29T02:00:05.975Z,4
2019-03-29T02:15:06.042Z,3.9
2019-03-29T02:30:06.080Z,3.8
2019-03-29T02:45:06.377Z,3.7
2019-03-29T03:00:06.554Z,3.6
2019-03-29T03:15:06.700Z,3.5
2019-03-29T03:30:06.525Z,3.5
2019-03-29T03:45:06.542Z,3.4
2019-03-29T04:00:06.555Z,3.3
2019-03-29T04:15:06.884Z,3.2
2019-03-29T04:30:07.310Z,3.1
2019-03-29T04:45:07.614Z,3
2019-03-29T05:00:08.556Z,2.9
2019-03-29T05:15:08.673Z,2.9
2019-03-29T05:30:08.658Z,2.8
2019-03-29T05:45:09.437Z,2.9
2019-03-29T06:00:09.357Z,2.8
2019-03-29T06:15:09.372Z,2.9
2019-03-29T06:30:09.379Z,2.9
2019-03-29T06:45:09.380Z,2.9
2019-03-29T07:00:09.412Z,3.4
2019-03-29T07:15:11.027Z,3.6
2019-03-29T07:30:12.110Z,3.9
2019-03-29T07:45:02.663Z,4.4
2019-03-29T08:00:03.407Z,5.1
2019-03-29T08:15:03.284Z,5.9
2019-03-29T08:32:13.984Z,6.9
2019-03-29T08:45:03.777Z,7.9
2019-03-29T09:00:04.018Z,8.8
2019-03-29T09:15:04.466Z,9.3
2019-03-29T09:30:05.913Z,9.8
2019-03-29T09:45:11.766Z,10.1
2019-03-29T10:00:23.420Z,10.3
2019-03-29T10:15:06.617Z,10.6
2019-03-29T10:30:07.345Z,10.9
2019-03-29T10:45:08.697Z,11
2019-03-29T11:00:08.686Z,11.3
2019-03-29T11:15:08.693Z,11.5
2019-03-29T11:30:08.662Z,11.6
2019-03-29T11:45:08.853Z,11.6
2019-03-29T12:00:10.270Z,11.8
2019-03-29T12:15:10.322Z,12.1
2019-03-29T12:30:06.305Z,12.5
2019-03-29T12:45:07.473Z,13
2019-03-29T13:00:07.625Z,12.8
2019-03-29T13:15:08.162Z,12.8
2019-03-29T13:30:08.760Z,12.7
2019-03-29T13:45:08.519Z,12.8
2019-03-29T14:17:21.306Z,12.9
2019-03-29T14:30:10.431Z,12.9
2019-03-29T14:45:10.567Z,12.9
2019-03-29T15:02:20.574Z,13
2019-03-29T15:15:08.080Z,13
2019-03-29T15:30:08.050Z,12.8
2019-03-29T15:45:21.071Z,12.7
2019-03-29T16:00:08.974Z,12.7
2019-03-29T16:15:09.237Z,12.5
2019-03-29T16:30:09.261Z,12.5
2019-03-29T16:47:20.280Z,12.4
2019-03-29T17:02:21.403Z,12.1
2019-03-29T17:15:10.369Z,11.8
2019-03-29T17:32:21.747Z,11.4
2019-03-29T17:47:22.709Z,10.8
2019-03-29T18:00:12.214Z,10.1
2019-03-29T18:17:12.672Z,9.6
2019-03-29T18:32:13.767Z,9.2
2019-03-29T18:45:04.719Z,8.9
2019-03-29T19:00:04.847Z,8.7
2019-03-29T19:15:04.842Z,8.4
2019-03-29T19:30:06.355Z,8.2
2019-03-29T19:45:07.610Z,7.8
2019-03-29T20:00:07.668Z,7.7
2019-03-29T20:15:07.757Z,7.4
2019-03-29T20:30:08.053Z,7.3
2019-03-29T20:45:08.061Z,7.1
2019-03-29T21:00:08.133Z,6.9
2019-03-29T21:15:08.741Z,6.6
2019-03-29T21:30:08.881Z,6.4
2019-03-29T21:45:09.435Z,6.2
2019-03-29T22:00:09.462Z,6
2019-03-29T22:15:09.539Z,5.9
2019-03-29T22:30:09.622Z,5.7
2019-03-29T22:45:09.803Z,5.4
2019-03-29T23:00:10.074Z,5.2
2019-03-29T23:15:10.383Z,5.1
2019-03-29T23:32:19.729Z,5.2
2019-03-29T23:45:10.695Z,5
